Terminal Aerodrome Forecast
Issued by NWS Charleston, WV

Current Version | Previous Version | Graphics & Text | Print | Product List | Glossary On
Versions: 1 2 3 4 5 6 7 8 9 10 11 12 13 14 15 16 17
000
FTUS41 KRLX 250200 AAA
TAFBKW
TAF AMD
KBKW 250259Z 2503/2524 27012G21KT P6SM OVC015
     FM251400 28012G18KT P6SM OVC025
     FM251800 28012G22KT P6SM OVC035
     FM252300 28005KT P6SM SCT035=

USA.gov is the U.S. government's official web portal to all federal, state and local government web resources and services.